EZY112S EINN-EGKK
Flight info
| Callsign | EZY112S |
|---|---|
| Flight time | N/A |
| Altitude | 33000 |
| Route | KURUM3A KURUM DCT NORLA DCT FONZU DCT ELRIP/N0408F230 N17 OTMET |
| Aircraft | A20N/M-SDE2E3FGHIRWXY/LB1 |
Departure
| Time | 2026-04-29 19:37 |
|---|---|
| Airport | Shannon Airport (EINN) |
Arrival
| Time | N/A |
|---|---|
| Airport | London Gatwick Airport (EGKK) |
| Time | Latitude | Longitude | Altitude | Speed | Heading |
|---|---|---|---|---|---|
| 2026-04-29 19:23 | 52.70440 | -8.91078 | 29 ft | 0 kts | 169° |
| 2026-04-29 19:26 | 52.70414 | -8.91070 | 29 ft | 13 kts | 170° |
| 2026-04-29 19:26 | 52.70255 | -8.91018 | 30 ft | 31 kts | 168° |
| 2026-04-29 19:26 | 52.70020 | -8.91105 | 32 ft | 37 kts | 198° |
| 2026-04-29 19:26 | 52.69774 | -8.91239 | 34 ft | 37 kts | 198° |
| 2026-04-29 19:27 | 52.69528 | -8.91377 | 37 ft | 37 kts | 198° |
| 2026-04-29 19:27 | 52.69359 | -8.91471 | 39 ft | 8 kts | 195° |
| 2026-04-29 19:27 | 52.69316 | -8.91518 | 39 ft | 6 kts | 265° |
| 2026-04-29 19:27 | 52.69367 | -8.91671 | 40 ft | 24 kts | 312° |
| 2026-04-29 19:28 | 52.69450 | -8.91944 | 40 ft | 29 kts | 284° |
| 2026-04-29 19:28 | 52.69502 | -8.92271 | 39 ft | 30 kts | 297° |
| 2026-04-29 19:28 | 52.69642 | -8.92527 | 42 ft | 31 kts | 315° |
| 2026-04-29 19:28 | 52.69796 | -8.92774 | 42 ft | 31 kts | 312° |
| 2026-04-29 19:29 | 52.69867 | -8.92892 | 43 ft | 0 kts | 315° |
| 2026-04-29 19:36 | 52.69876 | -8.92906 | 43 ft | 5 kts | 315° |
| 2026-04-29 19:37 | 52.69972 | -8.92942 | 42 ft | 25 kts | 30° |
| 2026-04-29 19:37 | 52.70025 | -8.92840 | 41 ft | 49 kts | 53° |
| 2026-04-29 19:37 | 52.70826 | -8.91144 | 172 ft | 155 kts | 53° |
| 2026-04-29 19:37 | 52.71516 | -8.89684 | 837 ft | 169 kts | 53° |
| 2026-04-29 19:38 | 52.72248 | -8.88038 | 1501 ft | 184 kts | 62° |
| 2026-04-29 19:38 | 52.72613 | -8.85928 | 2136 ft | 203 kts | 92° |
| 2026-04-29 19:38 | 52.72179 | -8.83624 | 2844 ft | 223 kts | 118° |
| 2026-04-29 19:38 | 52.71327 | -8.81390 | 3697 ft | 235 kts | 122° |
| 2026-04-29 19:39 | 52.70387 | -8.79112 | 4484 ft | 246 kts | 123° |
| 2026-04-29 19:39 | 52.69412 | -8.76760 | 4828 ft | 250 kts | 123° |
| 2026-04-29 19:39 | 52.68226 | -8.74714 | 4962 ft | 254 kts | 144° |
| 2026-04-29 19:39 | 52.66559 | -8.73699 | 5000 ft | 261 kts | 169° |
| 2026-04-29 19:40 | 52.64750 | -8.73402 | 5103 ft | 262 kts | 171° |
| 2026-04-29 19:40 | 52.62924 | -8.73123 | 5642 ft | 264 kts | 171° |
| 2026-04-29 19:40 | 52.61111 | -8.72840 | 6813 ft | 260 kts | 170° |
| 2026-04-29 19:40 | 52.59303 | -8.72547 | 7850 ft | 263 kts | 170° |
| 2026-04-29 19:41 | 52.57471 | -8.72242 | 8849 ft | 266 kts | 170° |
| 2026-04-29 19:41 | 52.55618 | -8.71932 | 9877 ft | 269 kts | 170° |
| 2026-04-29 19:41 | 52.53733 | -8.71614 | 10821 ft | 273 kts | 170° |
| 2026-04-29 19:41 | 52.51836 | -8.71295 | 11728 ft | 276 kts | 170° |
| 2026-04-29 19:42 | 52.49907 | -8.70970 | 12606 ft | 281 kts | 170° |
| 2026-04-29 19:42 | 52.49273 | -8.70863 | 12885 ft | 283 kts | 170° |
| 2026-04-29 19:42 | 52.45951 | -8.70305 | 14317 ft | 290 kts | 170° |
| 2026-04-29 19:42 | 52.43949 | -8.69972 | 15205 ft | 289 kts | 170° |
| 2026-04-29 19:43 | 52.41945 | -8.69638 | 16074 ft | 290 kts | 169° |
| 2026-04-29 19:43 | 52.39939 | -8.69303 | 16932 ft | 290 kts | 169° |
| 2026-04-29 19:43 | 52.37925 | -8.68967 | 17782 ft | 291 kts | 169° |
| 2026-04-29 19:43 | 52.35904 | -8.68631 | 18605 ft | 293 kts | 169° |
| 2026-04-29 19:44 | 52.33871 | -8.68292 | 19292 ft | 295 kts | 169° |
| 2026-04-29 19:44 | 52.32512 | -8.68065 | 19746 ft | 297 kts | 169° |
| 2026-04-29 19:44 | 52.29769 | -8.67607 | 20631 ft | 301 kts | 169° |
| 2026-04-29 19:44 | 52.27681 | -8.67260 | 21285 ft | 304 kts | 170° |
| 2026-04-29 19:45 | 52.25578 | -8.66877 | 21976 ft | 304 kts | 165° |
| 2026-04-29 19:45 | 52.23609 | -8.65708 | 22605 ft | 302 kts | 148° |
| 2026-04-29 19:45 | 52.22002 | -8.63504 | 23209 ft | 306 kts | 130° |
| 2026-04-29 19:45 | 52.20878 | -8.60524 | 23804 ft | 312 kts | 121° |
| 2026-04-29 19:46 | 52.19863 | -8.57381 | 24303 ft | 314 kts | 121° |
| 2026-04-29 19:46 | 52.18838 | -8.54222 | 24841 ft | 317 kts | 121° |
| 2026-04-29 19:46 | 52.17798 | -8.51039 | 25347 ft | 319 kts | 122° |
| 2026-04-29 19:46 | 52.17088 | -8.48877 | 25690 ft | 321 kts | 122° |
| 2026-04-29 19:47 | 52.16043 | -8.45703 | 26173 ft | 324 kts | 122° |
| 2026-04-29 19:47 | 52.14973 | -8.42465 | 26662 ft | 326 kts | 122° |
| 2026-04-29 19:47 | 52.13894 | -8.39204 | 27151 ft | 329 kts | 122° |
| 2026-04-29 19:47 | 52.12805 | -8.35918 | 27608 ft | 331 kts | 122° |
| 2026-04-29 19:48 | 52.11707 | -8.32610 | 28061 ft | 334 kts | 122° |
| 2026-04-29 19:48 | 52.10693 | -8.29557 | 28480 ft | 336 kts | 123° |
| 2026-04-29 19:48 | 52.09579 | -8.26210 | 28926 ft | 338 kts | 123° |
| 2026-04-29 19:49 | 52.08456 | -8.22838 | 29360 ft | 340 kts | 123° |
| 2026-04-29 19:49 | 52.07324 | -8.19444 | 29795 ft | 342 kts | 123° |
| 2026-04-29 19:49 | 52.06184 | -8.16029 | 30192 ft | 345 kts | 123° |
| 2026-04-29 19:49 | 52.05034 | -8.12594 | 30542 ft | 347 kts | 123° |
| 2026-04-29 19:50 | 52.03876 | -8.09136 | 30881 ft | 350 kts | 123° |
| 2026-04-29 19:50 | 52.02709 | -8.05656 | 31218 ft | 352 kts | 123° |
| 2026-04-29 19:50 | 52.01531 | -8.02151 | 31554 ft | 354 kts | 123° |
| 2026-04-29 19:50 | 52.00347 | -7.98628 | 31882 ft | 357 kts | 123° |
| 2026-04-29 19:51 | 51.99152 | -7.95082 | 32204 ft | 359 kts | 123° |
| 2026-04-29 19:51 | 51.97948 | -7.91512 | 32522 ft | 362 kts | 123° |
| 2026-04-29 19:51 | 51.96736 | -7.87924 | 32824 ft | 364 kts | 123° |
| 2026-04-29 19:51 | 51.95511 | -7.84303 | 32938 ft | 367 kts | 123° |
| 2026-04-29 19:52 | 51.94283 | -7.80677 | 32967 ft | 366 kts | 123° |
| 2026-04-29 19:52 | 51.91832 | -7.73453 | 32964 ft | 366 kts | 123° |
| 2026-04-29 19:53 | 51.89372 | -7.66230 | 32959 ft | 366 kts | 123° |
| 2026-04-29 19:53 | 51.86906 | -7.59012 | 32959 ft | 367 kts | 123° |
| 2026-04-29 19:54 | 51.83191 | -7.48175 | 32955 ft | 368 kts | 123° |
| 2026-04-29 19:54 | 51.80705 | -7.40949 | 32952 ft | 368 kts | 123° |
| 2026-04-29 19:55 | 51.78211 | -7.33721 | 32954 ft | 369 kts | 123° |
| 2026-04-29 19:55 | 51.75709 | -7.26491 | 32952 ft | 369 kts | 123° |
| 2026-04-29 19:56 | 51.73202 | -7.19266 | 32950 ft | 369 kts | 123° |
| 2026-04-29 19:56 | 51.70686 | -7.12037 | 32953 ft | 370 kts | 123° |
| 2026-04-29 19:57 | 51.68592 | -7.06033 | 32951 ft | 370 kts | 123° |
| 2026-04-29 19:57 | 51.65636 | -6.97586 | 32947 ft | 370 kts | 124° |
| 2026-04-29 19:58 | 51.63107 | -6.90377 | 32944 ft | 370 kts | 124° |
| 2026-04-29 19:58 | 51.60859 | -6.82903 | 32946 ft | 374 kts | 117° |
| 2026-04-29 19:59 | 51.58921 | -6.75150 | 32944 ft | 373 kts | 117° |
| 2026-04-29 19:59 | 51.56976 | -6.67419 | 32942 ft | 373 kts | 117° |
| 2026-04-29 20:00 | 51.55025 | -6.59712 | 32942 ft | 372 kts | 117° |
| 2026-04-29 20:00 | 51.53080 | -6.52071 | 32941 ft | 372 kts | 117° |
| 2026-04-29 20:01 | 51.51120 | -6.44399 | 32940 ft | 371 kts | 117° |
| 2026-04-29 20:01 | 51.49157 | -6.36742 | 32938 ft | 371 kts | 117° |
| 2026-04-29 20:02 | 51.47189 | -6.29088 | 32938 ft | 371 kts | 117° |
| 2026-04-29 20:02 | 51.45548 | -6.22730 | 32935 ft | 371 kts | 117° |
| 2026-04-29 20:03 | 51.43231 | -6.13780 | 32933 ft | 372 kts | 117° |
| 2026-04-29 20:03 | 51.41238 | -6.06110 | 32933 ft | 373 kts | 117° |
| 2026-04-29 20:04 | 51.39238 | -5.98437 | 32924 ft | 374 kts | 117° |
| 2026-04-29 20:04 | 51.37230 | -5.90760 | 32932 ft | 374 kts | 118° |
| 2026-04-29 20:05 | 51.35214 | -5.83078 | 32926 ft | 374 kts | 118° |
| 2026-04-29 20:05 | 51.33192 | -5.75399 | 32931 ft | 375 kts | 118° |
| 2026-04-29 20:06 | 51.31162 | -5.67719 | 32932 ft | 375 kts | 118° |
| 2026-04-29 20:06 | 51.29126 | -5.60037 | 32932 ft | 375 kts | 118° |
| 2026-04-29 20:07 | 51.27083 | -5.52357 | 32928 ft | 376 kts | 118° |
| 2026-04-29 20:07 | 51.25033 | -5.44679 | 32930 ft | 376 kts | 118° |
| 2026-04-29 20:08 | 51.23326 | -5.38302 | 32925 ft | 376 kts | 118° |
| 2026-04-29 20:08 | 51.20930 | -5.29382 | 32931 ft | 376 kts | 118° |
| 2026-04-29 20:09 | 51.18848 | -5.21659 | 32932 ft | 377 kts | 118° |